METAR AND TAF INFORMATION

METAR FOR EYKA
ADDS - METARS form results

(0019 UTC 20 August 2022)
Data provider http://aviationweather.gov/metar/data/
 
METAR text: EYKA 192350Z AUTO 11005KT 9999 NCD 19/15 Q1016
Conditions at: EYKA (KAUNAS , LT) observed 2350 UTC 19 August 2022
Temperature: 19.0°C (66°F)
Dewpoint: 15.0°C (59°F) [RH = 78%]
Pressure (altimeter): 30.00 inches Hg (1016.0 mb)
Winds: from the ESE (110 degrees) at 6 MPH (5 knots; 2.6 m/s)
Visibility: 6 or more miles (10+ km)
Ceiling: at least 12,000 feet AGL
Clouds: sky clear below 12,000 feet AGL
Weather: no significant weather observed at this time

METAR text: EYKA 192320Z AUTO 11004KT 9999 NCD 19/15 Q1016
Conditions at: EYKA (KAUNAS , LT) observed 2320 UTC 19 August 2022
Temperature: 19.0°C (66°F)
Dewpoint: 15.0°C (59°F) [RH = 78%]
Pressure (altimeter): 30.00 inches Hg (1016.0 mb)
Winds: from the ESE (110 degrees) at 5 MPH (4 knots; 2.1 m/s)
Visibility: 6 or more miles (10+ km)
Ceiling: at least 12,000 feet AGL
Clouds: sky clear below 12,000 feet AGL
Weather: no significant weather observed at this time

Forecast for: EYKA (KAUNAS , LT)
Text: TAF EYKA 192305Z 2000/2024 10008KT 9000 NSC
Forecast period: 0000 UTC 20 August 2022 to 0000 UTC 21 August 2022
Forecast type: FROM: standard forecast or significant change
Winds: from the E (100 degrees) at 9 MPH (8 knots; 4.1 m/s)
Visibility: 6 miles (9 km)
Ceiling: unknown
Clouds: missing
Weather: no significant weather forecast for this period
Text: TEMPO 2003/2006 SCT005
Forecast period: 0300 to 0600 UTC 20 August 2022
Forecast type: TEMPORARY: The following changes expected for less than half the time period
Visibility: missing
Ceiling: at least 12,000 feet AGL
Clouds: scattered clouds at 500 feet AGL
Weather: no significant weather forecast for this period
Text: TEMPO 2013/2017 SCT040CB
Forecast period: 1300 to 1700 UTC 20 August 2022
Forecast type: TEMPORARY: The following changes expected for less than half the time period
Visibility: missing
Ceiling: at least 12,000 feet AGL
Clouds: scattered clouds at 4000 feet AGL
Weather: no significant weather forecast for this period

 

AIRPORT MAP

 

RUNWAY INFORMATION

Runway 08 Runway length 10335 ft Runway width 148 ft
Runway elevation 236 ft Runway displaced threshold 1116 ft Runway heading 85
Runway 26 Runway length 10335 ft Runway width 148 ft
Runway elevation 256 ft Runway displaced threshold 788 ft Runway heading 265

 

AIRPORT FREQUENCIES

Type APP Name APP Frequency 124.2 MHZ
Type MISC Name HANDLING Frequency 121.6 MHZ
Type TWR Name TWR Frequency 118.5 MHZ

 

AIRPORT NEAR NAVIGATION AIDS

Type VOR-DME Name Kaunas Frequency 114400 KHZ
Type NDB Name Kaunas Frequency 343 KHZ